createdAt,value
2019-05-19T00:01:51.904Z,16.20
2019-05-19T00:04:22.937Z,16.10
2019-05-19T00:06:54.392Z,16.10
2019-05-19T00:09:25.407Z,16.00
2019-05-19T00:11:56.656Z,16.00
2019-05-19T00:14:27.944Z,15.90
2019-05-19T00:16:59.205Z,15.90
2019-05-19T00:19:30.765Z,15.90
2019-05-19T00:22:01.994Z,16.00
2019-05-19T00:24:33.582Z,16.00
2019-05-19T00:27:04.928Z,16.10
2019-05-19T00:29:36.218Z,16.00
2019-05-19T00:32:07.241Z,15.90
2019-05-19T00:34:38.205Z,15.90
2019-05-19T00:37:09.209Z,15.90
2019-05-19T00:39:40.448Z,15.90
2019-05-19T00:42:11.623Z,15.80
2019-05-19T00:44:45.715Z,15.80
2019-05-19T00:47:17.195Z,15.80
2019-05-19T00:49:48.423Z,15.80
2019-05-19T00:52:19.652Z,15.70
2019-05-19T00:54:50.701Z,15.70
2019-05-19T00:57:22.178Z,15.60
2019-05-19T00:59:54.764Z,15.60
2019-05-19T01:02:26.114Z,15.60
2019-05-19T01:04:59.897Z,15.50
2019-05-19T01:07:30.828Z,15.50
2019-05-19T01:10:02.034Z,15.40
2019-05-19T01:12:33.349Z,15.40
2019-05-19T01:15:04.969Z,15.40
2019-05-19T01:17:36.437Z,15.30
2019-05-19T01:20:07.988Z,15.30
2019-05-19T01:22:40.257Z,15.20
2019-05-19T01:25:11.686Z,15.20
2019-05-19T01:27:42.895Z,15.10
2019-05-19T01:30:14.392Z,15.10
2019-05-19T01:32:45.708Z,15.00
2019-05-19T01:35:18.598Z,15.00
2019-05-19T01:37:49.801Z,14.90
2019-05-19T01:40:21.230Z,14.90
2019-05-19T01:42:53.480Z,14.80
2019-05-19T01:45:25.281Z,14.90
2019-05-19T01:47:56.569Z,14.90
2019-05-19T01:50:29.237Z,14.90
2019-05-19T01:53:00.273Z,14.80
2019-05-19T01:55:31.649Z,14.70
2019-05-19T01:58:02.875Z,14.60
2019-05-19T02:00:34.044Z,14.60
2019-05-19T02:03:05.374Z,14.60
2019-05-19T02:05:36.359Z,14.60
2019-05-19T02:08:07.757Z,14.50
2019-05-19T02:10:38.752Z,14.50
2019-05-19T02:13:10.107Z,14.50
2019-05-19T02:15:41.372Z,14.40
2019-05-19T02:18:12.656Z,14.40
2019-05-19T02:20:44.371Z,14.30
2019-05-19T02:23:15.632Z,14.30
2019-05-19T02:25:46.794Z,14.30
2019-05-19T02:28:18.172Z,14.30
2019-05-19T02:30:49.537Z,14.30
2019-05-19T02:33:20.954Z,14.20
2019-05-19T02:35:53.202Z,14.20
2019-05-19T02:38:25.088Z,14.20
2019-05-19T02:40:58.505Z,14.20
2019-05-19T02:43:30.622Z,14.20
2019-05-19T02:46:02.290Z,14.20
2019-05-19T02:48:36.222Z,14.20
2019-05-19T02:51:10.765Z,14.20
2019-05-19T02:53:44.333Z,14.20
2019-05-19T02:56:16.921Z,14.20
2019-05-19T02:58:49.166Z,14.20
2019-05-19T03:01:21.423Z,14.10
2019-05-19T03:03:57.648Z,14.10
2019-05-19T03:06:30.960Z,14.10
2019-05-19T03:09:02.885Z,14.00
2019-05-19T03:11:34.254Z,14.00
2019-05-19T03:14:05.690Z,14.00
2019-05-19T03:16:37.005Z,14.00
2019-05-19T03:19:08.417Z,13.90
2019-05-19T03:21:39.492Z,13.90
2019-05-19T03:24:10.874Z,14.00
2019-05-19T03:26:42.549Z,13.90
2019-05-19T03:29:16.376Z,13.90
2019-05-19T03:31:57.172Z,13.90
2019-05-19T03:34:28.831Z,13.90
2019-05-19T03:37:00.185Z,13.80
2019-05-19T03:39:33.055Z,13.80
2019-05-19T03:42:04.940Z,13.80
2019-05-19T03:44:38.076Z,13.80
2019-05-19T03:47:09.522Z,13.90
2019-05-19T03:49:40.703Z,13.80
2019-05-19T03:52:12.172Z,13.90
2019-05-19T03:54:43.537Z,13.80
2019-05-19T03:57:15.071Z,13.80
2019-05-19T03:59:46.658Z,13.70
2019-05-19T04:02:17.727Z,13.70
2019-05-19T04:04:49.401Z,13.80
2019-05-19T04:07:20.998Z,13.80
2019-05-19T04:09:52.079Z,13.80
2019-05-19T04:12:23.701Z,13.80
2019-05-19T04:14:55.012Z,13.80
2019-05-19T04:17:26.372Z,13.80
2019-05-19T04:19:57.397Z,13.80
2019-05-19T04:22:28.990Z,13.80
2019-05-19T04:25:00.319Z,13.80
2019-05-19T04:27:31.860Z,13.80
2019-05-19T04:30:03.778Z,13.80
2019-05-19T04:32:34.837Z,13.90
2019-05-19T04:35:06.185Z,13.80
2019-05-19T04:37:37.335Z,13.90
2019-05-19T04:40:10.920Z,13.80
2019-05-19T04:42:41.953Z,13.80
2019-05-19T04:45:14.963Z,13.90
2019-05-19T04:47:46.013Z,13.90
2019-05-19T04:50:17.462Z,13.90
2019-05-19T04:52:48.797Z,13.90
2019-05-19T04:55:20.076Z,14.00
2019-05-19T04:57:51.405Z,14.00
2019-05-19T05:00:22.697Z,14.10
2019-05-19T05:02:53.740Z,14.20
2019-05-19T05:05:25.157Z,14.20
2019-05-19T05:07:56.558Z,14.30
2019-05-19T05:10:27.598Z,14.30
2019-05-19T05:12:59.097Z,14.40
2019-05-19T05:15:30.328Z,14.50
2019-05-19T05:18:01.952Z,14.60
2019-05-19T05:20:33.646Z,14.60
2019-05-19T05:23:04.920Z,14.70
2019-05-19T05:25:36.469Z,14.80
2019-05-19T05:28:07.817Z,14.90
2019-05-19T05:30:39.044Z,15.00
2019-05-19T05:33:10.565Z,15.10
2019-05-19T05:35:42.161Z,15.20
2019-05-19T05:38:13.753Z,15.30
2019-05-19T05:40:46.398Z,15.50
2019-05-19T05:43:17.441Z,15.60
2019-05-19T05:45:48.894Z,15.60
2019-05-19T05:48:20.257Z,15.60
2019-05-19T05:50:51.520Z,15.70
2019-05-19T05:53:22.650Z,15.80
2019-05-19T05:55:54.252Z,15.80
2019-05-19T05:58:25.770Z,15.80
2019-05-19T06:00:57.017Z,15.90
2019-05-19T06:03:28.435Z,16.00
2019-05-19T06:05:59.792Z,16.10
2019-05-19T06:08:32.388Z,16.10
2019-05-19T06:11:03.369Z,16.20
2019-05-19T06:13:34.704Z,16.30
2019-05-19T06:16:06.045Z,16.30
2019-05-19T06:18:40.204Z,16.40
2019-05-19T06:21:11.520Z,16.50
2019-05-19T06:23:42.707Z,16.50
2019-05-19T06:26:13.671Z,16.60
2019-05-19T06:28:44.628Z,16.70
2019-05-19T06:31:15.832Z,16.70
2019-05-19T06:33:47.077Z,16.70
2019-05-19T06:36:18.403Z,16.80
2019-05-19T06:38:49.706Z,16.90
2019-05-19T06:41:21.928Z,17.00
2019-05-19T06:43:53.134Z,17.00
2019-05-19T06:46:24.424Z,17.10
2019-05-19T06:48:55.613Z,17.10
2019-05-19T06:51:26.944Z,17.10
2019-05-19T06:53:58.232Z,17.10
2019-05-19T06:56:29.168Z,17.10
2019-05-19T06:59:00.123Z,17.20
2019-05-19T07:01:31.555Z,17.40
2019-05-19T07:04:02.574Z,17.40
2019-05-19T07:06:36.796Z,17.40
2019-05-19T07:09:08.265Z,17.50
2019-05-19T07:11:39.442Z,17.50
2019-05-19T07:14:10.631Z,17.70
2019-05-19T07:16:41.876Z,17.80
2019-05-19T07:19:13.125Z,17.90
2019-05-19T07:21:47.928Z,18.10
2019-05-19T07:24:19.099Z,18.10
2019-05-19T07:26:50.347Z,18.10
2019-05-19T07:29:21.505Z,18.20
2019-05-19T07:31:52.672Z,18.20
2019-05-19T07:34:23.850Z,18.30
2019-05-19T07:36:55.017Z,18.30
2019-05-19T07:39:26.470Z,18.30
2019-05-19T07:41:59.324Z,18.40
2019-05-19T07:44:30.785Z,18.60
2019-05-19T07:47:01.868Z,18.70
2019-05-19T07:49:33.060Z,18.80
2019-05-19T07:52:04.072Z,18.80
2019-05-19T07:54:35.953Z,18.80
2019-05-19T07:57:07.903Z,18.70
2019-05-19T07:59:39.832Z,18.80
2019-05-19T08:02:10.823Z,18.80
2019-05-19T08:04:42.012Z,18.90
2019-05-19T08:07:14.029Z,19.00
2019-05-19T08:09:55.203Z,19.20
2019-05-19T08:12:27.979Z,19.30
2019-05-19T08:15:01.966Z,19.40
2019-05-19T08:17:33.334Z,19.50
2019-05-19T08:20:05.107Z,19.60
2019-05-19T08:22:36.282Z,19.70
2019-05-19T08:25:07.940Z,19.70
2019-05-19T08:27:39.472Z,19.70
2019-05-19T08:30:12.551Z,19.80
2019-05-19T08:32:43.840Z,19.90
2019-05-19T08:35:19.195Z,19.90
2019-05-19T08:37:50.977Z,19.90
2019-05-19T08:40:23.195Z,19.90
2019-05-19T08:42:56.361Z,19.90
2019-05-19T08:45:27.986Z,19.90
2019-05-19T08:47:59.038Z,20.00
2019-05-19T08:50:30.284Z,20.00
2019-05-19T08:53:03.372Z,20.10
2019-05-19T08:55:35.171Z,20.20
2019-05-19T08:58:07.236Z,20.30
2019-05-19T09:00:38.792Z,20.40
2019-05-19T09:03:09.820Z,20.50
2019-05-19T09:05:41.141Z,20.40
2019-05-19T09:08:13.875Z,20.60
2019-05-19T09:10:45.286Z,20.60
2019-05-19T09:13:17.225Z,20.60
2019-05-19T09:15:48.348Z,20.60
2019-05-19T09:18:19.561Z,20.60
2019-05-19T09:20:51.005Z,20.70
2019-05-19T09:23:22.443Z,20.90
2019-05-19T09:25:59.175Z,21.00
2019-05-19T09:28:30.957Z,21.10
2019-05-19T09:31:03.224Z,21.30
2019-05-19T09:33:40.015Z,21.40
2019-05-19T09:36:11.399Z,21.50
2019-05-19T09:38:42.540Z,21.60
2019-05-19T09:41:14.804Z,21.70
2019-05-19T09:43:46.005Z,21.80
2019-05-19T09:46:16.924Z,21.90
2019-05-19T09:48:50.187Z,22.00
2019-05-19T09:51:21.532Z,22.00
2019-05-19T09:53:52.944Z,22.20
2019-05-19T09:56:24.120Z,22.20
2019-05-19T09:58:59.520Z,22.30
2019-05-19T10:01:31.016Z,22.30
2019-05-19T10:04:02.307Z,22.30
2019-05-19T10:06:33.476Z,22.30
2019-05-19T10:09:17.310Z,22.40
2019-05-19T10:12:05.371Z,22.30
2019-05-19T10:14:37.349Z,22.30
2019-05-19T10:17:09.075Z,22.30
2019-05-19T10:19:40.243Z,22.30
2019-05-19T10:22:11.614Z,22.30
2019-05-19T10:24:59.300Z,22.30
2019-05-19T10:27:16.300Z,22.30
2019-05-19T10:29:47.614Z,22.30
2019-05-19T10:32:19.307Z,22.40
2019-05-19T10:34:50.226Z,22.40
2019-05-19T10:37:21.596Z,22.50
2019-05-19T10:39:52.924Z,22.70
2019-05-19T10:42:24.599Z,22.70
2019-05-19T10:44:55.851Z,22.80
2019-05-19T10:47:26.823Z,22.90
2019-05-19T10:49:57.989Z,23.00
2019-05-19T10:52:29.354Z,23.10
2019-05-19T10:55:01.943Z,23.20
2019-05-19T10:57:33.464Z,23.20
2019-05-19T11:00:05.485Z,23.30
2019-05-19T11:02:36.531Z,23.30
2019-05-19T11:05:10.893Z,23.40
2019-05-19T11:07:40.895Z,23.60
2019-05-19T11:10:12.833Z,23.70
2019-05-19T11:12:46.846Z,23.70
2019-05-19T11:15:16.892Z,23.80
2019-05-19T11:17:48.071Z,23.80
2019-05-19T11:20:20.041Z,23.80
2019-05-19T11:22:51.560Z,23.50
2019-05-19T11:25:33.325Z,23.50
2019-05-19T11:27:58.372Z,23.30
2019-05-19T11:30:29.294Z,23.20
2019-05-19T11:33:00.571Z,23.20
2019-05-19T11:35:32.939Z,23.10
2019-05-19T11:38:04.171Z,23.20
2019-05-19T11:40:35.336Z,23.20
2019-05-19T11:43:06.805Z,23.20
2019-05-19T11:45:37.965Z,23.20
2019-05-19T11:48:10.751Z,23.20
2019-05-19T11:50:42.373Z,23.10
2019-05-19T11:53:13.783Z,23.20
2019-05-19T11:55:44.700Z,23.20
2019-05-19T11:58:16.877Z,23.10
2019-05-19T12:00:48.054Z,23.00
2019-05-19T12:03:19.218Z,23.00
2019-05-19T12:05:50.953Z,23.00
2019-05-19T12:08:22.071Z,23.00
2019-05-19T12:10:53.141Z,23.10
2019-05-19T12:13:24.308Z,23.30
2019-05-19T12:15:56.856Z,23.40
2019-05-19T12:18:28.049Z,23.60
2019-05-19T12:20:59.228Z,23.60
2019-05-19T12:23:30.450Z,23.60
2019-05-19T12:26:22.720Z,23.70
2019-05-19T12:28:44.968Z,23.80
2019-05-19T12:31:16.480Z,24.00
2019-05-19T12:33:51.908Z,24.20
2019-05-19T12:36:21.033Z,24.20
2019-05-19T12:38:52.538Z,24.20
2019-05-19T12:41:23.785Z,24.30
2019-05-19T12:43:54.975Z,24.10
2019-05-19T12:46:26.216Z,24.00
2019-05-19T12:48:57.965Z,24.00
2019-05-19T12:51:29.708Z,23.90
2019-05-19T12:54:00.923Z,23.80
2019-05-19T12:56:39.621Z,23.70
2019-05-19T12:59:05.209Z,23.60
2019-05-19T13:01:37.949Z,23.60
2019-05-19T13:04:09.132Z,23.50
2019-05-19T13:06:40.075Z,23.40
2019-05-19T13:09:12.164Z,23.20
2019-05-19T13:11:44.795Z,23.10
2019-05-19T13:14:17.652Z,23.00
2019-05-19T13:16:49.705Z,22.90
2019-05-19T13:19:20.883Z,22.80
2019-05-19T13:21:52.576Z,22.70
2019-05-19T13:24:23.736Z,22.60
2019-05-19T13:26:56.783Z,22.50
2019-05-19T13:29:28.017Z,22.30
2019-05-19T13:31:59.412Z,22.20
2019-05-19T13:34:30.841Z,22.00
2019-05-19T13:37:02.122Z,21.90
2019-05-19T13:39:34.690Z,21.80
2019-05-19T13:42:05.873Z,21.60
2019-05-19T13:44:37.682Z,21.50
2019-05-19T13:47:09.084Z,21.50
2019-05-19T13:49:40.257Z,21.40
2019-05-19T13:52:11.416Z,21.30
2019-05-19T13:54:42.342Z,21.10
2019-05-19T13:57:14.199Z,20.80
2019-05-19T13:59:46.807Z,20.30
2019-05-19T14:02:17.962Z,19.70
2019-05-19T14:04:50.454Z,19.30
2019-05-19T14:07:21.596Z,19.00
2019-05-19T14:09:52.616Z,18.90
2019-05-19T14:12:24.107Z,19.00
2019-05-19T14:14:56.959Z,19.20
2019-05-19T14:17:27.881Z,19.20
2019-05-19T14:20:11.820Z,19.10
2019-05-19T14:22:43.291Z,19.00
2019-05-19T14:25:16.341Z,18.80
2019-05-19T14:27:47.988Z,18.80
2019-05-19T14:30:22.058Z,18.90
2019-05-19T14:33:23.508Z,18.90
2019-05-19T14:35:59.874Z,19.00
2019-05-19T14:38:31.193Z,19.00
2019-05-19T14:41:02.501Z,19.00
2019-05-19T14:43:37.043Z,19.00
2019-05-19T14:46:10.741Z,19.00
2019-05-19T14:48:42.160Z,19.10
2019-05-19T14:51:15.547Z,19.10
2019-05-19T14:53:46.516Z,19.20
2019-05-19T14:56:21.574Z,19.20
2019-05-19T14:58:54.135Z,19.40
2019-05-19T15:01:32.913Z,19.50
2019-05-19T15:04:10.078Z,19.50
2019-05-19T15:06:43.142Z,19.60
2019-05-19T15:09:15.664Z,19.60
2019-05-19T15:11:47.711Z,19.70
2019-05-19T15:14:19.160Z,19.70
2019-05-19T15:16:53.479Z,19.80
2019-05-19T15:19:27.356Z,19.80
2019-05-19T15:22:01.496Z,19.80
2019-05-19T15:24:32.702Z,19.80
2019-05-19T15:27:06.958Z,19.80
2019-05-19T15:29:38.699Z,19.80
2019-05-19T15:32:10.464Z,19.80
2019-05-19T15:34:41.887Z,19.70
2019-05-19T15:37:14.340Z,19.80
2019-05-19T15:39:46.783Z,19.90
2019-05-19T15:42:18.008Z,19.80
2019-05-19T15:44:51.648Z,19.70
2019-05-19T15:47:22.926Z,19.70
2019-05-19T15:49:54.148Z,19.60
2019-05-19T15:52:25.107Z,19.50
2019-05-19T15:54:58.082Z,19.40
2019-05-19T15:57:29.357Z,19.40
2019-05-19T16:00:00.285Z,19.30
2019-05-19T16:02:31.566Z,19.10
2019-05-19T16:05:02.774Z,19.00
2019-05-19T16:07:34.826Z,19.00
2019-05-19T16:10:07.844Z,18.80
2019-05-19T16:12:42.612Z,18.60
2019-05-19T16:15:14.244Z,18.50
2019-05-19T16:17:50.520Z,18.50
2019-05-19T16:20:22.100Z,18.60
2019-05-19T16:22:53.702Z,18.60
2019-05-19T16:25:25.202Z,18.60
2019-05-19T16:27:57.481Z,18.50
2019-05-19T16:30:29.336Z,18.50
2019-05-19T16:33:00.400Z,18.50
2019-05-19T16:35:31.890Z,18.50
2019-05-19T16:38:02.862Z,18.60
2019-05-19T16:40:34.205Z,18.60
2019-05-19T16:43:07.009Z,18.70
2019-05-19T16:45:38.656Z,18.70
2019-05-19T16:48:09.632Z,18.80
2019-05-19T16:50:41.764Z,18.70
2019-05-19T16:53:14.512Z,18.60
2019-05-19T16:55:58.792Z,18.50
2019-05-19T16:58:43.084Z,18.50
2019-05-19T17:01:04.224Z,18.60
2019-05-19T17:03:41.836Z,18.60
2019-05-19T17:06:13.066Z,18.70
2019-05-19T17:08:51.917Z,18.80
2019-05-19T17:11:23.111Z,18.90
2019-05-19T17:13:54.700Z,19.00
2019-05-19T17:16:25.856Z,19.20
2019-05-19T17:19:00.405Z,19.20
2019-05-19T17:21:31.351Z,19.20
2019-05-19T17:24:02.385Z,19.20
2019-05-19T17:26:33.608Z,19.10
2019-05-19T17:29:05.984Z,19.20
2019-05-19T17:31:40.284Z,19.20
2019-05-19T17:34:18.236Z,19.20
2019-05-19T17:36:54.712Z,19.10
2019-05-19T17:39:26.043Z,19.00
2019-05-19T17:42:01.013Z,18.90
2019-05-19T17:44:31.947Z,18.70
2019-05-19T17:47:03.779Z,18.60
2019-05-19T17:49:36.897Z,18.60
2019-05-19T17:52:07.940Z,18.40
2019-05-19T17:54:42.125Z,18.20
2019-05-19T17:57:16.015Z,18.00
2019-05-19T17:59:48.895Z,17.90
2019-05-19T18:02:20.246Z,17.90
2019-05-19T18:04:55.885Z,18.00
2019-05-19T18:07:27.047Z,18.00
2019-05-19T18:09:58.325Z,18.10
2019-05-19T18:12:29.897Z,18.00
2019-05-19T18:15:03.346Z,18.10
2019-05-19T18:17:34.341Z,18.10
2019-05-19T18:20:05.986Z,18.10
2019-05-19T18:22:38.053Z,18.00
2019-05-19T18:25:09.603Z,18.00
2019-05-19T18:27:40.576Z,18.00
2019-05-19T18:30:12.187Z,18.00
2019-05-19T18:32:46.358Z,18.00
2019-05-19T18:35:17.923Z,18.10
2019-05-19T18:37:49.412Z,18.10
2019-05-19T18:40:20.779Z,18.10
2019-05-19T18:42:52.839Z,18.00
2019-05-19T18:45:24.279Z,18.00
2019-05-19T18:47:56.294Z,18.10
2019-05-19T18:50:27.684Z,18.10
2019-05-19T18:52:58.718Z,18.00
2019-05-19T18:55:29.861Z,18.00
2019-05-19T18:58:03.755Z,18.00
2019-05-19T19:00:37.410Z,18.10
2019-05-19T19:03:08.488Z,18.00
2019-05-19T19:05:39.799Z,18.00
2019-05-19T19:08:10.885Z,17.90
2019-05-19T19:10:42.762Z,17.90
2019-05-19T19:13:14.323Z,17.80
2019-05-19T19:15:45.988Z,17.80
2019-05-19T19:18:17.180Z,17.80
2019-05-19T19:20:48.255Z,17.80
2019-05-19T19:23:19.626Z,17.80
2019-05-19T19:25:58.063Z,17.80
2019-05-19T19:28:29.514Z,17.80
2019-05-19T19:31:00.828Z,17.80
2019-05-19T19:33:32.146Z,17.90
2019-05-19T19:36:03.476Z,17.90
2019-05-19T19:38:34.916Z,17.80
2019-05-19T19:41:06.704Z,17.80
2019-05-19T19:43:37.863Z,17.80
2019-05-19T19:46:08.798Z,17.80
2019-05-19T19:48:40.651Z,17.80
2019-05-19T19:51:12.436Z,17.80
2019-05-19T19:53:44.040Z,17.80
2019-05-19T19:56:15.556Z,17.80
2019-05-19T19:58:47.820Z,17.80
2019-05-19T20:01:19.380Z,17.80
2019-05-19T20:03:51.786Z,17.80
2019-05-19T20:06:23.152Z,17.80
2019-05-19T20:08:54.161Z,17.70
2019-05-19T20:11:25.636Z,17.60
2019-05-19T20:13:57.240Z,17.60
2019-05-19T20:16:28.752Z,17.50
2019-05-19T20:19:00.215Z,17.40
2019-05-19T20:21:31.459Z,17.40
2019-05-19T20:24:03.043Z,17.40
2019-05-19T20:26:34.907Z,17.30
2019-05-19T20:29:09.574Z,17.30
2019-05-19T20:31:44.850Z,17.30
2019-05-19T20:34:17.014Z,17.40
2019-05-19T20:36:49.339Z,17.40
2019-05-19T20:39:20.844Z,17.20
2019-05-19T20:41:52.189Z,17.30
2019-05-19T20:44:24.595Z,17.30
2019-05-19T20:46:59.143Z,17.20
2019-05-19T20:49:31.690Z,17.20
2019-05-19T20:52:02.787Z,17.20
2019-05-19T20:54:34.081Z,17.20
2019-05-19T20:57:05.197Z,17.20
2019-05-19T20:59:39.007Z,17.10
2019-05-19T21:02:14.030Z,17.00
2019-05-19T21:04:45.705Z,17.00
2019-05-19T21:07:20.126Z,17.00
2019-05-19T21:10:00.857Z,16.90
2019-05-19T21:12:31.927Z,16.90
2019-05-19T21:15:04.421Z,16.80
2019-05-19T21:17:35.871Z,16.80
2019-05-19T21:20:09.410Z,16.70
2019-05-19T21:22:40.617Z,16.70
2019-05-19T21:25:12.180Z,16.70
2019-05-19T21:27:43.545Z,16.70
2019-05-19T21:30:15.157Z,16.70
2019-05-19T21:32:52.326Z,16.70
2019-05-19T21:35:23.611Z,16.70
2019-05-19T21:37:55.665Z,16.70
2019-05-19T21:40:27.007Z,16.60
2019-05-19T21:42:59.168Z,16.70
2019-05-19T21:45:30.680Z,16.70
2019-05-19T21:48:03.196Z,16.70
2019-05-19T21:50:34.828Z,16.60
2019-05-19T21:53:06.667Z,16.60
2019-05-19T21:55:38.052Z,16.60
2019-05-19T21:58:09.574Z,16.60
2019-05-19T22:00:42.407Z,16.60
2019-05-19T22:03:13.812Z,16.60
2019-05-19T22:05:53.000Z,16.60
2019-05-19T22:08:18.385Z,16.60
2019-05-19T22:10:49.689Z,16.60
2019-05-19T22:13:20.833Z,16.60
2019-05-19T22:15:52.104Z,16.60
2019-05-19T22:18:23.132Z,16.70
2019-05-19T22:20:54.169Z,16.60
2019-05-19T22:23:25.725Z,16.70
2019-05-19T22:25:57.037Z,16.60
2019-05-19T22:28:28.291Z,16.60
2019-05-19T22:30:59.678Z,16.60
2019-05-19T22:33:31.013Z,16.60
2019-05-19T22:36:04.233Z,16.60
2019-05-19T22:38:35.800Z,16.60
2019-05-19T22:41:07.204Z,16.50
2019-05-19T22:43:38.431Z,16.40
2019-05-19T22:46:09.739Z,16.40
2019-05-19T22:48:42.524Z,16.30
2019-05-19T22:51:13.773Z,16.30
2019-05-19T22:53:45.074Z,16.30
2019-05-19T22:56:16.599Z,16.30
2019-05-19T22:58:48.032Z,16.30
2019-05-19T23:01:19.378Z,16.30
2019-05-19T23:03:50.597Z,16.30
2019-05-19T23:06:21.862Z,16.20
2019-05-19T23:08:54.446Z,16.20
2019-05-19T23:11:25.760Z,16.20
2019-05-19T23:13:58.314Z,16.30
2019-05-19T23:16:29.628Z,16.20
2019-05-19T23:19:00.873Z,16.20
2019-05-19T23:21:34.770Z,16.30
2019-05-19T23:24:05.997Z,16.20
2019-05-19T23:26:38.493Z,16.20
2019-05-19T23:29:10.603Z,16.10
2019-05-19T23:31:42.279Z,16.10
2019-05-19T23:34:13.515Z,16.10
2019-05-19T23:36:44.796Z,16.00
2019-05-19T23:39:16.058Z,15.90
2019-05-19T23:41:47.896Z,15.90
2019-05-19T23:44:19.353Z,16.00
2019-05-19T23:46:50.996Z,16.00
2019-05-19T23:49:22.228Z,15.90
2019-05-19T23:51:53.478Z,15.90
2019-05-19T23:54:25.990Z,15.90
2019-05-19T23:56:59.286Z,15.80
2019-05-19T23:59:30.312Z,15.80
